createdAt,value
2018-12-31T00:01:45.832Z,3.60
2018-12-31T00:04:16.798Z,3.23
2018-12-31T00:06:47.268Z,3.77
2018-12-31T00:09:18.262Z,4.57
2018-12-31T00:11:48.730Z,3.97
2018-12-31T00:14:19.218Z,3.60
2018-12-31T00:16:49.708Z,4.13
2018-12-31T00:19:20.402Z,4.47
2018-12-31T00:21:51.349Z,4.73
2018-12-31T00:24:21.932Z,4.60
2018-12-31T00:26:52.866Z,3.63
2018-12-31T00:29:23.496Z,4.90
2018-12-31T00:31:54.021Z,4.60
2018-12-31T00:34:25.131Z,4.07
2018-12-31T00:36:55.539Z,4.30
2018-12-31T00:39:26.409Z,4.50
2018-12-31T00:41:57.337Z,4.40
2018-12-31T00:44:27.880Z,4.17
2018-12-31T00:46:58.377Z,4.00
2018-12-31T00:49:28.866Z,4.17
2018-12-31T00:52:00.828Z,3.97
2018-12-31T00:54:31.403Z,3.40
2018-12-31T00:57:02.092Z,4.00
2018-12-31T00:59:32.676Z,3.70
2018-12-31T01:02:03.178Z,3.73
2018-12-31T01:04:33.549Z,3.77
2018-12-31T01:07:04.164Z,3.17
2018-12-31T01:09:34.759Z,3.40
2018-12-31T01:12:05.404Z,3.10
2018-12-31T01:14:36.073Z,2.80
2018-12-31T01:17:07.112Z,2.93
2018-12-31T01:19:37.967Z,2.90
2018-12-31T01:22:08.631Z,2.97
2018-12-31T01:24:40.241Z,2.80
2018-12-31T01:27:11.087Z,2.63
2018-12-31T01:29:41.695Z,3.00
2018-12-31T01:32:12.249Z,3.37
2018-12-31T01:34:42.875Z,2.40
2018-12-31T01:37:13.669Z,3.17
2018-12-31T01:39:44.189Z,3.30
2018-12-31T01:42:15.086Z,2.87
2018-12-31T01:44:45.890Z,2.60
2018-12-31T01:47:16.417Z,2.70
2018-12-31T01:49:46.921Z,2.63
2018-12-31T01:52:17.638Z,3.07
2018-12-31T01:54:48.310Z,3.37
2018-12-31T01:57:19.010Z,3.40
2018-12-31T01:59:49.954Z,3.67
2018-12-31T02:02:20.835Z,3.57
2018-12-31T02:04:51.608Z,3.40
2018-12-31T02:07:22.490Z,4.17
2018-12-31T02:09:53.255Z,3.30
2018-12-31T02:12:23.878Z,3.70
2018-12-31T02:14:54.745Z,3.43
2018-12-31T02:17:26.359Z,4.37
2018-12-31T02:19:57.190Z,3.67
2018-12-31T02:22:27.902Z,4.40
2018-12-31T02:24:58.324Z,3.87
2018-12-31T02:27:28.888Z,3.40
2018-12-31T02:29:59.407Z,3.17
2018-12-31T02:32:30.107Z,3.40
2018-12-31T02:35:00.674Z,3.90
2018-12-31T02:37:31.105Z,3.20
2018-12-31T02:40:01.599Z,3.70
2018-12-31T02:42:32.026Z,3.93
2018-12-31T02:45:02.418Z,3.67
2018-12-31T02:47:32.821Z,4.53
2018-12-31T02:50:03.250Z,3.80
2018-12-31T02:52:33.712Z,3.60
2018-12-31T02:55:04.267Z,4.23
2018-12-31T02:57:34.790Z,4.67
2018-12-31T03:00:06.020Z,3.80
2018-12-31T03:02:36.465Z,4.33
2018-12-31T03:05:07.420Z,4.13
2018-12-31T03:07:37.948Z,4.00
2018-12-31T03:10:08.554Z,4.43
2018-12-31T03:12:39.065Z,4.40
2018-12-31T03:15:09.595Z,4.40
2018-12-31T03:17:40.513Z,3.63
2018-12-31T03:20:11.111Z,3.67
2018-12-31T03:22:41.630Z,3.60
2018-12-31T03:25:12.311Z,4.13
2018-12-31T03:27:42.881Z,3.70
2018-12-31T03:30:13.503Z,3.80
2018-12-31T03:32:44.020Z,3.70
2018-12-31T03:35:14.509Z,3.83
2018-12-31T03:37:44.998Z,4.33
2018-12-31T03:40:15.549Z,4.20
2018-12-31T03:42:46.081Z,4.30
2018-12-31T03:45:16.615Z,5.27
2018-12-31T03:47:47.624Z,4.40
2018-12-31T03:50:18.261Z,4.53
2018-12-31T03:52:48.728Z,5.27
2018-12-31T03:55:19.204Z,4.77
2018-12-31T03:57:49.569Z,4.77
2018-12-31T04:00:20.036Z,5.60
2018-12-31T04:02:50.563Z,5.73
2018-12-31T04:05:20.921Z,6.80
2018-12-31T04:07:53.185Z,6.43
2018-12-31T04:10:23.666Z,5.93
2018-12-31T04:12:54.091Z,6.27
2018-12-31T04:15:24.663Z,6.37
2018-12-31T04:17:55.097Z,6.93
2018-12-31T04:20:25.595Z,6.27
2018-12-31T04:22:56.055Z,6.87
2018-12-31T04:25:26.591Z,6.00
2018-12-31T04:27:56.981Z,6.67
2018-12-31T04:30:27.410Z,6.37
2018-12-31T04:32:57.968Z,7.23
2018-12-31T04:35:28.529Z,6.27
2018-12-31T04:37:59.117Z,6.37
2018-12-31T04:40:29.509Z,6.67
2018-12-31T04:43:00.056Z,6.63
2018-12-31T04:45:30.520Z,7.90
2018-12-31T04:48:01.003Z,5.77
2018-12-31T04:50:31.601Z,7.43
2018-12-31T04:53:02.136Z,6.83
2018-12-31T04:55:32.686Z,7.00
2018-12-31T04:58:03.789Z,7.03
2018-12-31T05:00:34.256Z,7.80
2018-12-31T05:03:04.716Z,7.60
2018-12-31T05:05:35.248Z,7.90
2018-12-31T05:08:05.906Z,7.40
2018-12-31T05:10:36.311Z,7.67
2018-12-31T05:13:06.815Z,7.77
2018-12-31T05:15:37.211Z,8.93
2018-12-31T05:18:07.687Z,7.80
2018-12-31T05:20:38.216Z,8.40
2018-12-31T05:23:08.790Z,8.43
2018-12-31T05:25:39.312Z,7.83
2018-12-31T05:28:09.947Z,8.17
2018-12-31T05:30:40.305Z,8.27
2018-12-31T05:33:10.675Z,6.97
2018-12-31T05:35:41.147Z,7.77
2018-12-31T05:38:11.625Z,7.90
2018-12-31T05:40:42.187Z,6.93
2018-12-31T05:43:12.788Z,7.20
2018-12-31T05:45:43.241Z,7.40
2018-12-31T05:48:13.702Z,6.57
2018-12-31T05:50:44.156Z,7.17
2018-12-31T05:53:15.282Z,6.30
2018-12-31T05:55:45.806Z,7.03
2018-12-31T05:58:16.246Z,7.37
2018-12-31T06:00:46.747Z,7.10
2018-12-31T06:03:17.216Z,7.43
2018-12-31T06:05:47.759Z,7.13
2018-12-31T06:08:18.189Z,5.90
2018-12-31T06:10:49.109Z,7.20
2018-12-31T06:13:19.647Z,6.57
2018-12-31T06:15:50.155Z,7.00
2018-12-31T06:18:20.593Z,7.30
2018-12-31T06:20:51.299Z,6.80
2018-12-31T06:23:21.806Z,6.40
2018-12-31T06:25:52.410Z,6.40
2018-12-31T06:28:23.040Z,6.07
2018-12-31T06:30:53.557Z,5.83
2018-12-31T06:33:24.030Z,6.63
2018-12-31T06:35:54.400Z,6.10
2018-12-31T06:38:24.832Z,9.27
2018-12-31T06:40:55.497Z,21.40
2018-12-31T06:43:27.277Z,19.63
2018-12-31T06:45:57.939Z,11.60
2018-12-31T06:48:28.596Z,15.97
2018-12-31T06:50:59.125Z,17.57
2018-12-31T06:53:30.093Z,16.97
2018-12-31T06:56:00.690Z,20.47
2018-12-31T06:58:31.102Z,33.20
2018-12-31T07:01:01.712Z,30.90
2018-12-31T07:03:32.146Z,27.80
2018-12-31T07:06:02.855Z,15.67
2018-12-31T07:08:33.329Z,10.53
2018-12-31T07:11:04.075Z,13.00
2018-12-31T07:13:34.600Z,8.33
2018-12-31T07:16:05.099Z,9.90
2018-12-31T07:18:35.551Z,9.30
2018-12-31T07:21:06.200Z,10.33
2018-12-31T07:23:36.636Z,9.63
2018-12-31T07:26:07.191Z,14.47
2018-12-31T07:28:37.682Z,19.93
2018-12-31T07:31:08.592Z,27.10
2018-12-31T07:33:39.350Z,19.10
2018-12-31T07:36:09.986Z,20.97
2018-12-31T07:38:40.584Z,20.83
2018-12-31T07:41:11.271Z,15.37
2018-12-31T07:43:42.040Z,11.73
2018-12-31T07:46:12.716Z,11.53
2018-12-31T07:48:43.224Z,13.33
2018-12-31T07:51:13.933Z,12.50
2018-12-31T07:53:44.676Z,11.43
2018-12-31T07:56:15.219Z,8.50
2018-12-31T07:58:45.870Z,6.93
2018-12-31T08:01:16.627Z,8.23
2018-12-31T08:03:47.424Z,7.63
2018-12-31T08:06:18.072Z,8.70
2018-12-31T08:08:48.735Z,8.13
2018-12-31T08:11:19.286Z,6.87
2018-12-31T08:13:49.850Z,7.87
2018-12-31T08:16:20.636Z,7.90
2018-12-31T08:18:51.257Z,7.63
2018-12-31T08:21:21.749Z,5.50
2018-12-31T08:23:52.290Z,12.30
2018-12-31T08:26:23.137Z,7.47
2018-12-31T08:28:53.670Z,6.40
2018-12-31T08:31:25.786Z,7.17
2018-12-31T08:33:59.151Z,8.70
2018-12-31T08:36:29.897Z,10.60
2018-12-31T08:39:00.607Z,10.90
2018-12-31T08:41:31.519Z,10.20
2018-12-31T08:44:02.266Z,8.80
2018-12-31T08:46:33.353Z,7.83
2018-12-31T08:49:04.133Z,6.80
2018-12-31T08:51:34.511Z,7.20
2018-12-31T08:54:09.651Z,7.30
2018-12-31T08:56:40.145Z,6.37
2018-12-31T08:59:10.641Z,9.07
2018-12-31T09:01:41.244Z,14.17
2018-12-31T09:04:11.802Z,14.10
2018-12-31T09:06:42.330Z,12.97
2018-12-31T09:09:12.683Z,8.27
2018-12-31T09:11:43.193Z,9.80
2018-12-31T09:14:14.131Z,7.03
2018-12-31T09:16:44.602Z,7.27
2018-12-31T09:19:15.215Z,8.20
2018-12-31T09:21:45.700Z,6.73
2018-12-31T09:24:16.791Z,7.37
2018-12-31T09:26:47.417Z,9.43
2018-12-31T09:29:18.119Z,9.97
2018-12-31T09:31:49.447Z,14.50
2018-12-31T09:34:19.935Z,9.87
2018-12-31T09:36:51.690Z,10.47
2018-12-31T09:39:22.245Z,8.37
2018-12-31T09:41:53.696Z,6.10
2018-12-31T09:44:24.339Z,5.07
2018-12-31T09:46:54.850Z,5.87
2018-12-31T09:49:25.340Z,6.63
2018-12-31T09:51:55.875Z,9.20
2018-12-31T09:54:26.292Z,7.27
2018-12-31T09:56:59.274Z,8.73
2018-12-31T09:59:29.957Z,11.07
2018-12-31T10:02:00.407Z,7.30
2018-12-31T10:04:30.950Z,6.93
2018-12-31T10:07:01.595Z,7.73
2018-12-31T10:09:32.187Z,11.77
2018-12-31T10:12:02.692Z,14.07
2018-12-31T10:14:33.568Z,10.90
2018-12-31T10:17:04.142Z,18.20
2018-12-31T10:19:34.865Z,19.57
2018-12-31T10:22:05.524Z,19.70
2018-12-31T10:24:36.117Z,15.13
2018-12-31T10:27:06.817Z,8.83
2018-12-31T10:29:37.500Z,8.13
2018-12-31T10:32:08.008Z,9.63
2018-12-31T10:34:38.429Z,9.60
2018-12-31T10:37:08.997Z,11.50
2018-12-31T10:39:39.529Z,12.20
2018-12-31T10:42:09.899Z,15.03
2018-12-31T10:44:40.449Z,19.10
2018-12-31T10:47:11.062Z,15.73
2018-12-31T10:49:41.566Z,14.07
2018-12-31T10:52:12.205Z,15.53
2018-12-31T10:54:42.635Z,11.13
2018-12-31T10:57:13.096Z,11.63
2018-12-31T10:59:43.699Z,13.20
2018-12-31T11:02:14.186Z,10.27
2018-12-31T11:04:44.779Z,11.70
2018-12-31T11:07:15.191Z,9.87
2018-12-31T11:09:45.789Z,9.30
2018-12-31T11:12:16.439Z,8.97
2018-12-31T11:14:46.980Z,9.97
2018-12-31T11:17:17.554Z,9.80
2018-12-31T11:19:48.119Z,9.80
2018-12-31T11:22:18.636Z,9.87
2018-12-31T11:24:49.225Z,9.67
2018-12-31T11:27:19.775Z,10.07
2018-12-31T11:29:50.249Z,9.73
2018-12-31T11:32:20.811Z,9.87
2018-12-31T11:34:51.341Z,10.40
2018-12-31T11:37:21.984Z,10.03
2018-12-31T11:39:52.559Z,10.23
2018-12-31T11:42:23.206Z,10.40
2018-12-31T11:44:53.630Z,9.83
2018-12-31T11:47:24.308Z,9.93
2018-12-31T11:49:55.116Z,10.70
2018-12-31T11:52:25.768Z,11.30
2018-12-31T11:54:56.251Z,11.30
2018-12-31T11:57:26.846Z,10.63
2018-12-31T11:59:57.431Z,10.73
2018-12-31T12:02:28.016Z,10.47
2018-12-31T12:04:58.706Z,11.43
2018-12-31T12:07:29.207Z,10.50
2018-12-31T12:09:59.791Z,11.07
2018-12-31T12:12:30.769Z,9.73
2018-12-31T12:15:01.436Z,9.63
2018-12-31T12:17:32.045Z,9.17
2018-12-31T12:20:02.648Z,9.43
2018-12-31T12:22:33.681Z,10.53
2018-12-31T12:25:04.409Z,10.90
2018-12-31T12:27:35.457Z,10.17
2018-12-31T12:30:07.582Z,10.23
2018-12-31T12:32:38.137Z,10.33
2018-12-31T12:35:08.747Z,9.83
2018-12-31T12:37:39.226Z,10.37
2018-12-31T12:40:09.931Z,10.07
2018-12-31T12:42:40.537Z,10.00
2018-12-31T12:45:11.087Z,11.40
2018-12-31T12:47:41.793Z,10.73
2018-12-31T12:50:12.426Z,10.53
2018-12-31T12:52:43.021Z,10.30
2018-12-31T12:55:13.926Z,10.60
2018-12-31T12:57:44.551Z,11.50
2018-12-31T13:00:15.217Z,13.30
2018-12-31T13:02:46.950Z,14.30
2018-12-31T13:05:17.816Z,14.57
2018-12-31T13:07:48.351Z,13.27
2018-12-31T13:10:19.159Z,17.67
2018-12-31T13:12:50.075Z,13.63
2018-12-31T13:15:20.650Z,13.87
2018-12-31T13:17:51.857Z,16.57
2018-12-31T13:20:22.525Z,18.47
2018-12-31T13:22:53.287Z,17.73
2018-12-31T13:25:23.855Z,14.60
2018-12-31T13:27:54.465Z,17.37
2018-12-31T13:30:25.257Z,27.03
2018-12-31T13:32:55.887Z,23.60
2018-12-31T13:35:26.496Z,25.73
2018-12-31T13:37:57.116Z,16.63
2018-12-31T13:40:27.571Z,17.10
2018-12-31T13:42:58.172Z,19.67
2018-12-31T13:45:28.919Z,20.97
2018-12-31T13:47:59.714Z,20.33
2018-12-31T13:50:31.886Z,15.37
2018-12-31T13:53:02.609Z,16.90
2018-12-31T13:55:33.130Z,14.63
2018-12-31T13:58:03.552Z,14.60
2018-12-31T14:00:34.232Z,15.13
2018-12-31T14:03:04.764Z,14.50
2018-12-31T14:05:35.375Z,13.57
2018-12-31T14:08:06.056Z,15.70
2018-12-31T14:10:36.748Z,15.23
2018-12-31T14:13:07.582Z,15.70
2018-12-31T14:15:38.198Z,14.57
2018-12-31T14:18:08.727Z,15.53
2018-12-31T14:20:39.356Z,14.67
2018-12-31T14:23:09.967Z,14.30
2018-12-31T14:25:40.582Z,17.57
2018-12-31T14:28:11.262Z,15.70
2018-12-31T14:30:41.934Z,16.03
2018-12-31T14:33:12.646Z,16.03
2018-12-31T14:35:45.865Z,18.13
2018-12-31T14:38:15.707Z,22.60
2018-12-31T14:40:46.477Z,19.87
2018-12-31T14:43:17.166Z,23.20
2018-12-31T14:45:48.260Z,24.60
2018-12-31T14:48:18.916Z,19.20
2018-12-31T14:50:49.640Z,18.37
2018-12-31T14:53:20.135Z,15.50
2018-12-31T14:55:50.846Z,17.03
2018-12-31T14:58:21.309Z,17.70
2018-12-31T15:00:51.926Z,18.27
2018-12-31T15:03:22.541Z,29.00
2018-12-31T15:05:53.201Z,31.50
2018-12-31T15:08:24.087Z,32.30
2018-12-31T15:10:54.625Z,30.57
2018-12-31T15:13:25.283Z,32.57
2018-12-31T15:15:56.955Z,43.50
2018-12-31T15:18:27.579Z,52.70
2018-12-31T15:20:58.132Z,64.53
2018-12-31T15:23:28.672Z,45.67
2018-12-31T15:25:59.183Z,21.17
2018-12-31T15:28:29.624Z,16.47
2018-12-31T15:31:00.322Z,17.63
2018-12-31T15:33:30.849Z,17.50
2018-12-31T15:36:01.523Z,17.27
2018-12-31T15:38:32.097Z,17.20
2018-12-31T15:41:02.740Z,16.43
2018-12-31T15:43:33.342Z,17.63
2018-12-31T15:46:03.947Z,18.17
2018-12-31T15:48:34.586Z,17.50
2018-12-31T15:51:05.242Z,18.07
2018-12-31T15:53:35.950Z,17.63
2018-12-31T15:56:06.479Z,19.03
2018-12-31T15:58:37.239Z,17.87
2018-12-31T16:01:07.937Z,16.97
2018-12-31T16:03:38.455Z,17.10
2018-12-31T16:06:09.016Z,16.60
2018-12-31T16:08:39.679Z,14.83
2018-12-31T16:11:10.230Z,16.20
2018-12-31T16:13:40.791Z,15.50
2018-12-31T16:16:11.434Z,15.90
2018-12-31T16:18:42.115Z,17.55
2018-12-31T16:21:12.663Z,15.20
2018-12-31T16:23:43.272Z,14.73
2018-12-31T16:26:13.719Z,14.23
2018-12-31T16:28:44.134Z,14.87
2018-12-31T16:31:14.786Z,14.23
2018-12-31T16:33:45.398Z,15.03
2018-12-31T16:36:16.076Z,14.70
2018-12-31T16:38:47.810Z,21.73
2018-12-31T16:41:18.562Z,28.90
2018-12-31T16:43:49.297Z,24.50
2018-12-31T16:46:20.022Z,21.13
2018-12-31T16:48:50.706Z,23.03
2018-12-31T16:51:21.415Z,14.33
2018-12-31T16:53:52.203Z,10.97
2018-12-31T16:56:22.819Z,11.10
2018-12-31T16:58:53.572Z,11.93
2018-12-31T17:01:24.269Z,11.33
2018-12-31T17:03:56.247Z,10.63
2018-12-31T17:06:27.023Z,9.57
2018-12-31T17:08:58.181Z,11.00
2018-12-31T17:11:28.789Z,12.23
2018-12-31T17:13:59.301Z,11.67
2018-12-31T17:16:29.896Z,12.33
2018-12-31T17:19:00.399Z,10.60
2018-12-31T17:21:31.988Z,9.73
2018-12-31T17:24:02.906Z,9.87
2018-12-31T17:26:33.896Z,10.57
2018-12-31T17:29:04.687Z,11.30
2018-12-31T17:31:35.186Z,12.00
2018-12-31T17:34:05.889Z,12.23
2018-12-31T17:36:36.507Z,11.23
2018-12-31T17:39:10.402Z,12.87
2018-12-31T17:41:40.924Z,13.50
2018-12-31T17:44:12.036Z,13.57
2018-12-31T17:46:42.833Z,12.87
2018-12-31T17:49:13.495Z,12.77
2018-12-31T17:51:44.061Z,13.23
2018-12-31T17:54:14.851Z,13.63
2018-12-31T17:56:45.816Z,13.83
2018-12-31T17:59:16.707Z,13.90
2018-12-31T18:01:47.456Z,17.20
2018-12-31T18:04:18.032Z,15.67
2018-12-31T18:06:48.736Z,16.53
2018-12-31T18:09:19.492Z,15.37
2018-12-31T18:11:50.030Z,16.23
2018-12-31T18:14:20.659Z,17.20
2018-12-31T18:16:51.089Z,15.33
2018-12-31T18:19:21.722Z,15.07
2018-12-31T18:21:52.262Z,15.23
2018-12-31T18:24:22.868Z,17.33
2018-12-31T18:26:53.385Z,26.03
2018-12-31T18:29:24.116Z,24.27
2018-12-31T18:31:54.916Z,15.63
2018-12-31T18:34:25.624Z,15.27
2018-12-31T18:36:56.123Z,15.97
2018-12-31T18:39:26.688Z,15.00
2018-12-31T18:41:57.680Z,16.40
2018-12-31T18:44:28.219Z,16.60
2018-12-31T18:46:58.821Z,14.57
2018-12-31T18:49:29.411Z,13.83
2018-12-31T18:52:01.571Z,14.23
2018-12-31T18:54:32.193Z,14.23
2018-12-31T18:57:02.797Z,15.90
2018-12-31T18:59:33.373Z,16.00
2018-12-31T19:02:03.928Z,14.70
2018-12-31T19:04:34.772Z,16.37
2018-12-31T19:07:05.312Z,15.70
2018-12-31T19:09:36.006Z,15.87
2018-12-31T19:12:06.676Z,15.07
2018-12-31T19:14:37.324Z,13.97
2018-12-31T19:17:07.998Z,15.33
2018-12-31T19:19:38.406Z,14.43
2018-12-31T19:22:09.082Z,15.10
2018-12-31T19:24:39.717Z,15.93
2018-12-31T19:27:10.263Z,15.40
2018-12-31T19:29:40.836Z,17.27
2018-12-31T19:32:11.410Z,17.67
2018-12-31T19:34:42.016Z,18.33
2018-12-31T19:37:12.619Z,19.23
2018-12-31T19:39:43.554Z,21.57
2018-12-31T19:42:14.035Z,24.03
2018-12-31T19:44:45.158Z,25.73
2018-12-31T19:47:15.682Z,30.57
2018-12-31T19:49:46.239Z,35.93
2018-12-31T19:52:17.325Z,39.20
2018-12-31T19:54:47.929Z,46.27
2018-12-31T19:57:18.776Z,43.47
2018-12-31T19:59:49.499Z,43.13
2018-12-31T20:02:20.547Z,50.30
2018-12-31T20:04:51.084Z,49.63
2018-12-31T20:07:21.737Z,58.23
2018-12-31T20:09:52.236Z,56.43
2018-12-31T20:12:22.756Z,60.17
2018-12-31T20:14:53.231Z,61.93
2018-12-31T20:17:23.924Z,61.30
2018-12-31T20:19:55.435Z,62.53
2018-12-31T20:22:25.983Z,63.80
2018-12-31T20:24:56.651Z,63.97
2018-12-31T20:27:27.122Z,59.30
2018-12-31T20:29:57.930Z,59.43
2018-12-31T20:32:28.872Z,60.30
2018-12-31T20:34:59.584Z,58.10
2018-12-31T20:37:30.157Z,55.63
2018-12-31T20:40:00.912Z,58.27
2018-12-31T20:42:31.734Z,58.07
2018-12-31T20:45:02.329Z,57.47
2018-12-31T20:47:32.794Z,59.83
2018-12-31T20:50:04.066Z,58.13
2018-12-31T20:52:36.396Z,54.50
2018-12-31T20:55:07.110Z,56.90
2018-12-31T20:57:37.820Z,56.80
2018-12-31T21:00:09.326Z,56.47
2018-12-31T21:02:39.869Z,54.87
2018-12-31T21:05:11.514Z,52.37
2018-12-31T21:07:42.529Z,51.63
2018-12-31T21:10:13.614Z,49.23
2018-12-31T21:12:44.227Z,50.43
2018-12-31T21:15:16.333Z,51.47
2018-12-31T21:17:47.037Z,48.20
2018-12-31T21:20:17.667Z,49.30
2018-12-31T21:22:48.436Z,49.37
2018-12-31T21:25:18.960Z,48.67
2018-12-31T21:27:49.655Z,45.70
2018-12-31T21:30:20.322Z,46.40
2018-12-31T21:32:51.072Z,45.63
2018-12-31T21:35:21.942Z,48.13
2018-12-31T21:37:52.491Z,47.97
2018-12-31T21:40:23.164Z,50.77
2018-12-31T21:42:53.911Z,54.03
2018-12-31T21:45:24.557Z,62.13
2018-12-31T21:47:55.496Z,59.97
2018-12-31T21:50:26.209Z,57.70
2018-12-31T21:52:56.831Z,53.50
2018-12-31T21:55:27.374Z,49.73
2018-12-31T21:57:58.122Z,48.50
2018-12-31T22:00:28.496Z,46.93
2018-12-31T22:02:59.101Z,48.27
2018-12-31T22:05:29.726Z,48.03
2018-12-31T22:08:00.442Z,46.53
2018-12-31T22:10:31.112Z,50.40
2018-12-31T22:13:01.680Z,49.10
2018-12-31T22:15:32.727Z,48.57
2018-12-31T22:18:03.432Z,50.90
2018-12-31T22:20:34.051Z,51.73
2018-12-31T22:23:05.008Z,54.87
2018-12-31T22:25:35.547Z,54.60
2018-12-31T22:28:06.162Z,52.70
2018-12-31T22:30:36.832Z,54.77
2018-12-31T22:33:07.321Z,50.87
2018-12-31T22:35:38.012Z,49.40
2018-12-31T22:38:08.562Z,46.63
2018-12-31T22:40:39.079Z,55.13
2018-12-31T22:43:09.671Z,45.90
2018-12-31T22:45:40.397Z,50.83
2018-12-31T22:48:11.073Z,50.33
2018-12-31T22:50:41.654Z,50.30
2018-12-31T22:53:12.637Z,49.30
2018-12-31T22:55:43.267Z,48.03
2018-12-31T22:58:13.837Z,47.70
2018-12-31T23:00:44.605Z,49.73
2018-12-31T23:03:15.011Z,45.73
2018-12-31T23:05:45.647Z,46.43
2018-12-31T23:08:16.669Z,43.67
2018-12-31T23:10:47.240Z,44.50
2018-12-31T23:13:18.062Z,45.40
2018-12-31T23:15:48.809Z,44.63
2018-12-31T23:18:19.325Z,44.20
2018-12-31T23:20:49.881Z,45.80
2018-12-31T23:23:21.327Z,51.77
2018-12-31T23:25:52.039Z,56.27
2018-12-31T23:28:22.639Z,57.93
2018-12-31T23:30:53.242Z,59.63
2018-12-31T23:33:23.659Z,85.70
2018-12-31T23:35:54.349Z,102.10
2018-12-31T23:38:25.263Z,95.70
2018-12-31T23:40:55.948Z,117.00
2018-12-31T23:43:27.325Z,119.97
2018-12-31T23:45:58.075Z,114.53
2018-12-31T23:48:28.647Z,104.97
2018-12-31T23:50:59.205Z,107.73
2018-12-31T23:53:30.013Z,109.93
2018-12-31T23:56:00.594Z,112.87
2018-12-31T23:58:31.397Z,106.23
